»·PEaware :: EAW2174 KPHX-KTUS

EAW2174 :: KPHX-KTUS

FLIGHT INFORMATION

Flight Status: Arrived
Operator: Unknown
More flights by this operator :: More flights under this callsign
Pilot: Ben F. (2808)
Aircraft: DEHAVILLAND DASH 8 400
(DH8D)
More flights by this aircraft type
Origin: KPHX Phoenix Sky Harbor Intl
United States
Destination: KTUS Tucson Intl
United States
More flights between these airports :: More routes between these airports
Route: STRRM1 STRRM BASER DINGO DINGO5
File this flight plan on PilotEdge
Remarks: EAW= Eagle Airways, call sign "Eagle"
Altitude:
(Current/Filed)
17,000ft
Speed:
(Current/Filed)
321kts
Departed: 25-May-19 08:39 AM
Arrived: 25-May-19 09:08 AM
Distance/Time
Traveled:
95nm/0:29
Distance/Time
To Go:
Arrived

Flight Plot

Page will automatically refresh every two minutes.

Flight plan parsing failed; only flown route is shown


Map Options




Map Legend


Flown Route
Filed Route
Departure Airport
Arrival Airport
Navaid (VOR, NDB)
Fix

Horizontal Profiles

Position Reports

Time Latitude Longitude Heading Altitude Ground
Speed
25-May-19 08:07 33.434955 -112.011044 234 1142ft 0kts
25-May-19 08:08 33.434955 -112.011044 234 1142ft 0kts
25-May-19 08:09 33.434955 -112.011044 234 1142ft 0kts
25-May-19 08:10 33.434955 -112.011044 234 1142ft 0kts
25-May-19 08:11 33.434955 -112.011044 234 1142ft 0kts
25-May-19 08:12 33.434955 -112.011044 234 1142ft 0kts
25-May-19 08:13 33.434955 -112.011044 234 1142ft 0kts
25-May-19 08:14 33.434955 -112.011044 234 1142ft 0kts
25-May-19 08:15 33.434955 -112.011044 234 1142ft 0kts
25-May-19 08:16 33.434955 -112.011044 234 1142ft 0kts
25-May-19 08:17 33.434955 -112.011044 234 1142ft 0kts
25-May-19 08:18 33.434955 -112.011044 234 1142ft 0kts
25-May-19 08:19 33.434955 -112.011044 234 1142ft 0kts
25-May-19 08:20 33.434955 -112.011044 234 1142ft 0kts
25-May-19 08:21 33.434955 -112.011044 234 1142ft 0kts
25-May-19 08:22 33.434955 -112.011044 234 1142ft 0kts
25-May-19 08:23 33.434955 -112.011044 234 1142ft 0kts
25-May-19 08:24 33.434955 -112.011044 234 1142ft 0kts
25-May-19 08:25 33.434955 -112.011044 234 1142ft 0kts
25-May-19 08:26 33.434955 -112.011044 234 1142ft 0kts
25-May-19 08:27 33.434955 -112.011044 234 1142ft 0kts
25-May-19 08:28 33.434955 -112.011044 234 1142ft 0kts
25-May-19 08:29 33.434955 -112.011044 234 1142ft 0kts
25-May-19 08:30 33.434955 -112.011044 234 1142ft 0kts
25-May-19 08:31 33.434527 -112.012073 209 1142ft 9kts
25-May-19 08:32 33.432837 -112.017673 270 1142ft 26kts
25-May-19 08:33 33.432835 -112.024808 268 1142ft 15kts
25-May-19 08:34 33.432842 -112.026234 269 1142ft 0kts
25-May-19 08:35 33.432559 -112.026970 190 1142ft 0kts
25-May-19 08:36 33.431051 -112.026818 131 1142ft 6kts
25-May-19 08:37 33.431025 -112.026381 87 1142ft 0kts
25-May-19 08:38 33.431234 -111.998178 85 1751ft 149kts
25-May-19 08:39 33.432825 -111.942037 89 4250ft 168kts
25-May-19 08:40 33.436695 -111.880530 90 6536ft 196kts
25-May-19 08:41 33.400377 -111.833769 144 8972ft 198kts
25-May-19 08:42 33.351340 -111.806676 184 11416ft 194kts
25-May-19 08:43 33.298389 -111.816489 191 13648ft 191kts
25-May-19 08:44 33.245085 -111.830258 192 15609ft 196kts
25-May-19 08:45 33.189746 -111.844978 193 16978ft 223kts
25-May-19 08:46 33.126653 -111.874789 209 17045ft 262kts
25-May-19 08:47 33.058185 -111.915055 182 17025ft 293kts
25-May-19 08:48 32.981395 -111.871283 154 16970ft 319kts
25-May-19 08:49 32.903973 -111.818849 154 16954ft 320kts
25-May-19 08:50 32.825670 -111.765975 154 16943ft 326kts
25-May-19 08:51 32.747184 -111.712970 155 16596ft 324kts
25-May-19 08:52 32.670533 -111.661610 155 14872ft 309kts
25-May-19 08:53 32.597294 -111.612567 155 13237ft 293kts
25-May-19 08:54 32.528412 -111.566402 154 11688ft 275kts
25-May-19 08:55 32.476206 -111.507165 120 10714ft 271kts
25-May-19 08:56 32.440652 -111.427176 120 9193ft 261kts
25-May-19 08:57 32.406643 -111.355659 120 7994ft 239kts
25-May-19 08:58 32.375236 -111.289439 120 6749ft 214kts
25-May-19 08:59 32.345570 -111.226987 122 6013ft 218kts
25-May-19 09:00 32.309580 -111.170270 132 5980ft 210kts
25-May-19 09:01 32.271168 -111.121598 136 5998ft 190kts
25-May-19 09:02 32.233463 -111.077093 136 5644ft 189kts
25-May-19 09:03 32.199132 -111.037178 135 4658ft 142kts
25-May-19 09:04 32.171802 -111.004993 135 4002ft 151kts
25-May-19 09:05 32.145012 -110.973337 134 3492ft 141kts
25-May-19 09:06 32.118489 -110.942227 135 2650ft 100kts
25-May-19 09:07 32.115767 -110.937732 30 2650ft 8kts
25-May-19 09:08 32.118321 -110.940360 315 2650ft 15kts
25-May-19 09:09 32.121033 -110.942286 14 2650ft 14kts

Navigation Log

Ident Type
Flight plan parsing failed, navigation log unavailable